LYS weather

Lyon Saint-Exupéry Airport
Lyon, Auvergne-Rhône-Alpes, France

Public forecast

Using degrees Celsius for public forecast. Weather courtesy of forecast.io.

Current aviation weather report (METAR) for Lyon Saint-Exupéry Airport

Retrieved 2020/04/03 06:30 UTC (29 minutes ago):

LFLL 030630Z AUTO 33006KT CAVOK 04/M01 Q1016 NOSIG

Aviation forecast (TAF) for Lyon Saint-Exupéry Airport

Retrieved 2020/04/03 06:21 UTC (38 minutes ago):

TAF LFLL 030500Z 0306/0412 35005KT CAVOK TEMPO 0309/0317 35015KT